Time;durP1;ratioP1;P1;durP2;ratioP2;P2;SDS_P1;SDS_P2;PMS_P1;PMS_P2;Temp;Humidity;BMP_temperature;BMP_pressure;BME280_temperature;BME280_humidity;BME280_pressure;Samples;Min_cycle;Max_cycle;Signal;HPM_P1;HPM_P2
2021/08/23 00:01:43;;;;;;;;;6.00;5.00;;;;;20.13;66.07;102042.97;5034286;28;45447;-75
2021/08/23 00:04:08;;;;;;;;;6.50;4.75;;;;;20.14;66.59;102039.34;5034550;28;46345;-76
2021/08/23 00:06:33;;;;;;;;;6.00;5.50;;;;;20.14;66.60;102034.84;5035152;28;48542;-75
2021/08/23 00:08:58;;;;;;;;;7.00;7.00;;;;;20.13;66.67;102026.97;5034927;28;45444;-76
2021/08/23 00:11:24;;;;;;;;;7.00;5.75;;;;;20.16;66.75;102040.97;5034439;28;45341;-76
2021/08/23 00:13:50;;;;;;;;;5.25;5.25;;;;;20.16;66.49;102032.97;5034006;28;47146;-75
2021/08/23 00:16:15;;;;;;;;;7.00;5.00;;;;;20.16;66.52;102037.44;5034098;28;45537;-76
2021/08/23 00:18:40;;;;;;;;;6.75;5.00;;;;;20.15;66.90;102038.38;5033829;28;45672;-76
2021/08/23 00:21:12;;;;;;;;;4.75;4.50;;;;;19.88;66.39;101983.13;5034722;28;45470;-76
2021/08/23 00:23:38;;;;;;;;;8.00;6.25;;;;;20.06;66.15;102018.47;5012797;28;47377;-76
2021/08/23 00:26:03;;;;;;;;;6.25;5.50;;;;;20.13;66.88;102018.94;5014481;28;45250;-76
2021/08/23 00:28:29;;;;;;;;;7.75;5.75;;;;;20.17;66.96;102037.34;5034424;28;45404;-75
2021/08/23 00:30:54;;;;;;;;;6.00;6.00;;;;;20.17;66.34;102032.00;5034143;28;45508;-75
2021/08/23 00:33:20;;;;;;;;;6.25;6.25;;;;;20.17;66.39;102031.16;5032944;28;45580;-76
2021/08/23 00:35:45;;;;;;;;;5.50;5.00;;;;;20.17;66.46;102034.69;5034472;28;45398;-75
2021/08/23 00:38:10;;;;;;;;;7.25;5.50;;;;;20.16;66.67;102035.63;5033360;28;45412;-75
2021/08/23 00:40:37;;;;;;;;;7.75;4.75;;;;;20.10;66.89;102022.69;5017137;28;45383;-75
2021/08/23 00:43:03;;;;;;;;;8.00;7.75;;;;;19.94;66.46;101993.44;5032822;28;45482;-75
2021/08/23 00:45:28;;;;;;;;;4.50;4.25;;;;;20.11;66.59;102027.06;5032133;28;45451;-75
2021/08/23 00:47:54;;;;;;;;;6.00;5.75;;;;;20.07;66.57;102029.06;5033942;28;45602;-75
2021/08/23 00:50:20;;;;;;;;;7.75;5.25;;;;;20.04;66.73;102023.03;5033895;28;45607;-75
2021/08/23 00:52:46;;;;;;;;;5.00;4.75;;;;;19.97;67.07;102011.91;5034264;28;46255;-76
2021/08/23 00:55:11;;;;;;;;;4.75;4.50;;;;;20.00;67.00;102019.72;5033753;28;45582;-76
2021/08/23 00:57:39;;;;;;;;;6.75;4.25;;;;;19.96;67.61;102009.34;5034282;28;45469;-75
2021/08/23 01:00:05;;;;;;;;;4.00;4.00;;;;;19.96;67.02;102009.34;5033644;28;45324;-76
2021/08/23 01:02:38;;;;;;;;;5.75;4.00;;;;;19.99;67.82;102012.69;5032073;28;46177;-76
2021/08/23 01:05:04;;;;;;;;;5.50;5.50;;;;;19.94;67.46;101998.75;5033531;28;45332;-76
2021/08/23 01:07:41;;;;;;;;;5.50;5.50;;;;;20.01;66.87;102016.09;5033989;28;45970;-76
2021/08/23 01:10:14;;;;;;;;;6.00;5.00;;;;;20.00;67.31;102011.72;5033077;28;45352;-76
2021/08/23 01:12:39;;;;;;;;;6.00;5.25;;;;;20.01;67.57;102009.91;5033145;28;45450;-76
2021/08/23 01:15:05;;;;;;;;;8.00;4.50;;;;;20.02;67.73;102015.13;5032548;28;45619;-76
2021/08/23 01:17:30;;;;;;;;;6.00;5.25;;;;;20.03;67.96;102011.50;5033620;28;45425;-75
2021/08/23 01:19:59;;;;;;;;;5.50;5.50;;;;;20.04;67.42;102013.22;5033048;28;51548;-76
2021/08/23 01:22:32;;;;;;;;;7.75;6.00;;;;;19.95;67.84;102000.47;5033732;28;46381;-76
2021/08/23 01:25:01;;;;;;;;;5.00;5.00;;;;;19.99;67.80;102012.69;5032781;28;46584;-76
2021/08/23 01:27:33;;;;;;;;;6.75;5.75;;;;;20.04;68.09;102021.22;5033493;28;45558;-75
2021/08/23 01:30:07;;;;;;;;;4.50;4.25;;;;;20.10;67.66;102021.78;5033854;28;45356;-74
2021/08/23 01:32:33;;;;;;;;;4.00;4.00;;;;;20.11;67.46;102018.19;5033096;28;45634;-75
2021/08/23 01:35:02;;;;;;;;;8.75;5.75;;;;;20.12;68.05;102015.44;5033079;28;45646;-75
2021/08/23 01:37:30;;;;;;;;;7.00;5.25;;;;;20.10;68.03;102019.13;5033544;28;45577;-75
2021/08/23 01:39:55;;;;;;;;;4.25;3.75;;;;;20.13;67.94;102029.63;5032891;28;45555;-75
2021/08/23 01:42:21;;;;;;;;;5.50;3.50;;;;;20.13;68.17;102029.63;5033482;28;46287;-74
2021/08/23 01:44:46;;;;;;;;;5.25;4.25;;;;;20.14;68.24;102020.66;5032550;28;45635;-75
2021/08/23 01:47:11;;;;;;;;;5.00;5.00;;;;;20.13;68.26;102033.16;5033071;28;45462;-74
2021/08/23 01:49:37;;;;;;;;;4.00;4.00;;;;;20.14;68.22;102029.53;5032940;28;45485;-74
2021/08/23 01:52:04;;;;;;;;;6.25;5.50;;;;;20.13;67.85;102027.81;5033291;28;46132;-75
2021/08/23 01:54:29;;;;;;;;;6.50;3.00;;;;;20.13;68.20;102033.16;5030774;28;45700;-75
2021/08/23 01:56:55;;;;;;;;;7.00;4.25;;;;;20.15;68.24;102025.03;5030696;28;48177;-75
2021/08/23 01:59:20;;;;;;;;;3.75;3.75;;;;;20.16;68.51;102027.63;5033614;28;45474;-76
2021/08/23 02:01:45;;;;;;;;;5.25;5.00;;;;;20.19;67.97;102030.09;5032176;28;54172;-75
2021/08/23 02:04:11;;;;;;;;;4.50;4.50;;;;;20.20;67.89;102026.50;5032943;28;53971;-74
2021/08/23 02:06:36;;;;;;;;;4.25;4.25;;;;;20.16;68.28;102018.78;5034037;28;45402;-75
2021/08/23 02:09:03;;;;;;;;;7.25;6.00;;;;;20.19;67.98;102027.41;5032271;28;45305;-76
2021/08/23 02:11:28;;;;;;;;;4.50;3.75;;;;;20.20;68.69;102033.63;5032970;28;46187;-75
2021/08/23 02:13:54;;;;;;;;;5.50;3.75;;;;;20.19;68.46;102026.56;5032487;28;45534;-75
2021/08/23 02:16:20;;;;;;;;;6.25;4.75;;;;;20.20;67.99;102033.63;5032734;28;45423;-74
2021/08/23 02:18:46;;;;;;;;;7.00;6.25;;;;;20.19;68.26;102023.91;5034037;28;45494;-77
2021/08/23 02:21:11;;;;;;;;;4.75;4.75;;;;;19.96;68.20;101990.66;5031907;28;57519;-75
2021/08/23 02:23:37;;;;;;;;;8.00;6.25;;;;;20.17;68.44;102032.00;5032369;28;45670;-74
2021/08/23 02:26:02;;;;;;;;;4.75;4.75;;;;;20.17;68.45;102031.16;5032768;28;45437;-75
2021/08/23 02:28:28;;;;;;;;;4.25;4.25;;;;;20.18;68.25;102035.53;5032534;28;45603;-74
2021/08/23 02:30:53;;;;;;;;;8.00;6.00;;;;;20.07;68.18;102014.84;5032089;28;46126;-76
2021/08/23 02:33:18;;;;;;;;;6.50;6.50;;;;;20.14;68.45;102031.34;5033207;28;45751;-74
2021/08/23 02:35:45;;;;;;;;;6.00;5.75;;;;;20.11;68.34;102028.88;5032836;28;45344;-75
2021/08/23 02:38:10;;;;;;;;;7.00;3.25;;;;;20.12;68.45;102030.59;5032737;28;45384;-74
2021/08/23 02:40:35;;;;;;;;;6.00;4.25;;;;;20.10;68.72;102035.13;5017690;28;47657;-75
2021/08/23 02:43:01;;;;;;;;;6.50;6.00;;;;;20.08;68.76;102030.75;5035225;28;45348;-76
2021/08/23 02:45:27;;;;;;;;;6.25;4.50;;;;;20.08;68.30;102032.56;5036319;28;45424;-75
2021/08/23 02:47:53;;;;;;;;;5.50;4.25;;;;;20.05;68.00;102027.44;5035835;28;45495;-75
2021/08/23 02:50:18;;;;;;;;;5.00;5.00;;;;;19.99;68.70;102018.00;5035476;28;46155;-75
2021/08/23 02:52:44;;;;;;;;;5.50;5.25;;;;;19.92;68.88;102018.47;5035485;28;45396;-74
2021/08/23 02:55:09;;;;;;;;;7.00;5.00;;;;;19.75;68.32;101992.84;5035857;28;45364;-75
2021/08/23 02:57:34;;;;;;;;;5.75;5.75;;;;;19.90;68.75;102009.72;5036338;28;45540;-76
2021/08/23 03:00:00;;;;;;;;;5.50;5.50;;;;;19.94;68.42;102030.78;5036240;28;46046;-75
2021/08/23 03:02:26;;;;;;;;;7.25;5.25;;;;;19.86;69.18;102019.72;5036532;28;45466;-75
2021/08/23 03:04:51;;;;;;;;;10.25;5.25;;;;;19.90;69.33;102029.25;5018193;28;45850;-74
2021/08/23 03:07:16;;;;;;;;;5.75;4.25;;;;;19.89;68.93;102015.97;5019759;28;45381;-75
2021/08/23 03:09:42;;;;;;;;;9.00;7.25;;;;;19.88;69.40;102022.28;5035430;28;57721;-75
2021/08/23 03:12:08;;;;;;;;;8.00;6.00;;;;;19.87;69.21;102024.09;5034833;28;50811;-75
2021/08/23 03:14:34;;;;;;;;;6.50;4.75;;;;;19.87;69.59;102020.56;5035138;28;45507;-75
2021/08/23 03:16:59;;;;;;;;;5.00;5.00;;;;;19.82;69.17;102004.84;5035322;28;45512;-75
2021/08/23 03:19:25;;;;;;;;;6.75;5.75;;;;;19.93;69.72;102023.72;5017798;28;46042;-75
2021/08/23 03:21:50;;;;;;;;;8.50;5.00;;;;;19.96;69.58;102025.34;5035079;28;45511;-75
2021/08/23 03:24:15;;;;;;;;;4.50;4.50;;;;;19.98;69.51;102024.28;5035656;28;45428;-74
2021/08/23 03:26:41;;;;;;;;;8.00;6.75;;;;;20.01;69.82;102020.59;5035407;28;45466;-75
2021/08/23 03:29:08;;;;;;;;;9.75;6.75;;;;;20.01;69.86;102021.44;5034948;28;47257;-76
2021/08/23 03:31:34;;;;;;;;;6.75;6.25;;;;;20.05;69.15;102025.63;5035104;28;45884;-74
2021/08/23 03:33:59;;;;;;;;;8.00;5.50;;;;;20.01;69.32;102023.25;5035130;28;45385;-75
2021/08/23 03:36:24;;;;;;;;;5.00;5.00;;;;;20.01;69.60;102028.59;5034945;28;51483;-74
2021/08/23 03:38:49;;;;;;;;;8.00;5.00;;;;;19.98;69.93;102024.28;5034658;28;52366;-75
2021/08/23 03:41:15;;;;;;;;;7.75;7.75;;;;;19.86;70.30;102011.72;5034770;28;45517;-75
2021/08/23 03:43:41;;;;;;;;;6.00;6.00;;;;;19.90;71.38;102029.25;5035379;28;45397;-74
2021/08/23 03:46:06;;;;;;;;;6.25;5.50;;;;;19.88;70.93;102033.81;5035144;28;45583;-76
2021/08/23 03:48:31;;;;;;;;;6.50;5.00;;;;;19.80;71.69;102020.09;5035427;28;46289;-75
2021/08/23 03:50:57;;;;;;;;;10.00;7.75;;;;;19.81;71.88;102032.47;5033386;28;45455;-75
2021/08/23 03:53:22;;;;;;;;;7.00;7.00;;;;;19.76;72.25;102029.22;5034527;28;45667;-75
2021/08/23 03:55:47;;;;;;;;;9.00;7.25;;;;;19.70;72.97;102026.94;5035343;28;45404;-75
2021/08/23 03:58:13;;;;;;;;;8.75;6.00;;;;;19.69;72.70;102022.56;5034630;28;46274;-75
2021/08/23 04:00:38;;;;;;;;;8.25;7.50;;;;;19.69;73.08;102022.56;5040952;28;45315;-75
2021/08/23 04:03:03;;;;;;;;;7.00;7.00;;;;;19.65;73.19;102019.22;5034772;28;45944;-75
2021/08/23 04:05:29;;;;;;;;;6.50;6.50;;;;;19.51;73.32;101998.69;5033661;28;45506;-75
2021/08/23 04:07:54;;;;;;;;;8.25;8.25;;;;;19.61;73.19;102024.81;5034203;28;45558;-74
2021/08/23 04:10:19;;;;;;;;;11.00;7.25;;;;;19.56;73.46;102020.59;5034973;28;45488;-74
2021/08/23 04:12:45;;;;;;;;;7.50;6.00;;;;;19.56;74.06;102028.59;5031351;28;45732;-75
2021/08/23 04:15:10;;;;;;;;;5.50;5.50;;;;;19.55;73.78;102018.88;5033374;28;45588;-75
2021/08/23 04:17:36;;;;;;;;;6.00;5.50;;;;;19.53;73.91;102018.13;5034203;28;45900;-77
2021/08/23 04:20:02;;;;;;;;;9.00;7.75;;;;;19.53;73.56;102017.28;5034143;28;56991;-75
2021/08/23 04:22:27;;;;;;;;;10.00;7.25;;;;;19.52;73.44;102023.53;5034465;28;45582;-75
2021/08/23 04:24:53;;;;;;;;;9.75;6.00;;;;;19.51;73.91;102025.34;5034537;28;45482;-75
2021/08/23 04:27:18;;;;;;;;;7.25;6.50;;;;;19.50;74.36;102023.63;5034499;28;45495;-74
2021/08/23 04:29:43;;;;;;;;;8.00;8.00;;;;;19.49;74.04;102027.25;5034074;28;45407;-75
2021/08/23 04:32:09;;;;;;;;;8.25;6.00;;;;;19.52;74.19;102029.75;5033885;28;45486;-76
2021/08/23 04:34:34;;;;;;;;;10.25;8.00;;;;;19.46;74.21;102019.44;5034404;28;45492;-75
2021/08/23 04:37:03;;;;;;;;;7.25;6.75;;;;;19.51;73.52;102032.47;5034585;28;45385;-74
2021/08/23 04:39:30;;;;;;;;;10.75;8.25;;;;;19.43;73.94;102016.97;5034898;28;45781;-74
2021/08/23 04:41:55;;;;;;;;;6.50;6.25;;;;;19.46;74.04;102027.41;5036813;28;45506;-75
2021/08/23 04:44:20;;;;;;;;;8.00;6.75;;;;;19.42;74.88;102027.69;5033305;28;45474;-75
2021/08/23 04:46:49;;;;;;;;;10.75;7.75;;;;;19.42;74.73;102033.03;5033403;28;61443;-76
2021/08/23 04:49:14;;;;;;;;;7.75;7.00;;;;;19.34;74.65;102029.97;5033621;28;45881;-75
2021/08/23 04:51:39;;;;;;;;;10.00;8.25;;;;;19.38;74.99;102039.50;5033877;28;45455;-75
2021/08/23 04:54:05;;;;;;;;;8.00;6.00;;;;;19.39;75.14;102041.22;5033904;28;45320;-75
2021/08/23 04:56:30;;;;;;;;;6.75;6.50;;;;;19.34;74.55;102024.63;5034233;28;45611;-76
2021/08/23 04:58:55;;;;;;;;;11.25;8.25;;;;;19.37;74.84;102028.00;5033203;28;54326;-74
2021/08/23 05:01:21;;;;;;;;;6.50;6.50;;;;;19.44;75.04;102050.66;5033298;28;51241;-75
2021/08/23 05:03:46;;;;;;;;;9.50;8.00;;;;;19.34;75.17;102029.97;5033274;28;45456;-75
2021/08/23 05:06:11;;;;;;;;;10.75;8.75;;;;;19.43;74.58;102045.44;5015666;28;46154;-75
2021/08/23 05:08:36;;;;;;;;;9.25;7.00;;;;;19.38;75.25;102048.38;5034068;28;45431;-75
2021/08/23 05:11:02;;;;;;;;;9.75;9.00;;;;;19.37;74.54;102049.31;5034055;28;45457;-75
2021/08/23 05:13:27;;;;;;;;;7.00;7.00;;;;;19.33;75.21;102055.78;5033479;28;45753;-75
2021/08/23 05:15:53;;;;;;;;;8.75;8.75;;;;;19.32;74.72;102055.88;5033207;28;46839;-75
2021/08/23 05:18:18;;;;;;;;;11.00;9.00;;;;;19.25;74.60;102052.69;5033159;28;45470;-75
2021/08/23 05:20:43;;;;;;;;;11.50;9.25;;;;;19.21;74.88;102056.47;5033862;28;45462;-75
2021/08/23 05:23:08;;;;;;;;;9.75;8.50;;;;;19.19;74.96;102064.56;5033277;28;45380;-74
2021/08/23 05:25:34;;;;;;;;;13.00;8.75;;;;;19.13;75.31;102056.06;5034153;28;48327;-75
2021/08/23 05:28:06;;;;;;;;;13.25;11.50;;;;;19.19;75.14;102061.03;5033130;28;45360;-74
2021/08/23 05:30:32;;;;;;;;;13.00;12.25;;;;;19.19;74.97;102069.91;5031102;28;45525;-75
2021/08/23 05:32:57;;;;;;;;;14.50;12.00;;;;;19.17;74.94;102065.63;5032845;28;45343;-75
2021/08/23 05:35:23;;;;;;;;;14.25;13.00;;;;;19.20;75.43;102073.41;5033262;28;46296;-75
2021/08/23 05:37:49;;;;;;;;;11.50;11.00;;;;;19.15;75.25;102064.81;5033442;28;45485;-75
2021/08/23 05:40:16;;;;;;;;;12.50;10.00;;;;;19.21;75.34;102076.00;5033626;28;45593;-74
2021/08/23 05:42:43;;;;;;;;;16.00;13.00;;;;;19.23;75.48;102081.25;5034281;28;45545;-74
2021/08/23 05:45:09;;;;;;;;;12.00;10.75;;;;;19.23;75.00;102074.09;5032912;28;47500;-75
2021/08/23 05:47:37;;;;;;;;;12.75;10.75;;;;;19.19;75.01;102063.72;5032406;28;45805;-74
2021/08/23 05:50:02;;;;;;;;;15.00;11.25;;;;;19.26;74.98;102081.06;5033104;28;45379;-75
2021/08/23 05:52:28;;;;;;;;;17.75;15.50;;;;;19.26;75.43;102078.38;5033264;28;45527;-74
2021/08/23 05:54:53;;;;;;;;;13.00;13.00;;;;;19.26;75.03;102076.59;5033492;28;45555;-75
2021/08/23 05:57:18;;;;;;;;;17.75;13.25;;;;;19.27;74.97;102077.47;5033292;28;51743;-75
2021/08/23 05:59:44;;;;;;;;;14.00;11.25;;;;;19.28;75.46;102084.50;5033135;28;45309;-75
2021/08/23 06:02:09;;;;;;;;;14.25;11.25;;;;;19.19;75.01;102072.56;5032031;28;45802;-75
2021/08/23 06:04:34;;;;;;;;;14.75;14.75;;;;;19.30;75.63;102088.78;5014613;28;49689;-77
2021/08/23 06:07:00;;;;;;;;;15.00;14.75;;;;;19.33;75.47;102093.09;5033604;28;45705;-75
2021/08/23 06:09:26;;;;;;;;;19.00;15.00;;;;;19.34;74.95;102110.78;5033771;28;45483;-75
2021/08/23 06:11:51;;;;;;;;;13.75;13.75;;;;;19.30;75.35;102088.78;5033318;28;45598;-75
2021/08/23 06:14:17;;;;;;;;;17.50;16.25;;;;;19.25;75.54;102082.00;5035330;28;46344;-75
2021/08/23 06:16:42;;;;;;;;;18.75;14.00;;;;;19.29;74.95;102092.41;5035928;28;45624;-75
2021/08/23 06:19:07;;;;;;;;;15.50;12.75;;;;;19.38;75.51;102107.00;5036475;28;45529;-76
2021/08/23 06:21:34;;;;;;;;;16.25;12.75;;;;;19.38;75.15;102107.00;5050963;28;48582;-75
2021/08/23 06:24:00;;;;;;;;;18.50;16.50;;;;;19.45;74.89;102103.03;5037992;28;45433;-75
2021/08/23 06:26:25;;;;;;;;;19.00;16.25;;;;;19.52;75.54;102104.41;5035624;28;45352;-74
2021/08/23 06:28:51;;;;;;;;;21.50;17.25;;;;;19.55;75.01;102098.03;5035301;28;45380;-75
2021/08/23 06:31:16;;;;;;;;;16.75;14.75;;;;;19.62;74.56;102103.88;5035131;28;45462;-74
2021/08/23 06:33:41;;;;;;;;;16.75;15.00;;;;;19.64;74.77;102091.31;5035957;28;45458;-72
2021/08/23 06:36:07;;;;;;;;;17.50;14.50;;;;;19.75;75.13;102100.41;5036208;28;45392;-73
2021/08/23 06:38:32;;;;;;;;;16.50;13.50;;;;;19.83;75.12;102101.72;5035874;28;45457;-73
2021/08/23 06:40:57;;;;;;;;;16.75;14.50;;;;;19.81;74.60;102092.03;5036541;28;45440;-73
2021/08/23 06:43:23;;;;;;;;;22.50;17.00;;;;;19.93;73.78;102103.75;5035518;28;46288;-73
2021/08/23 06:45:48;;;;;;;;;18.00;15.25;;;;;19.96;74.39;102100.91;5035704;28;51603;-73
2021/08/23 06:48:13;;;;;;;;;24.00;22.00;;;;;19.97;73.79;102097.28;5035206;28;49558;-73
2021/08/23 06:50:39;;;;;;;;;20.25;16.00;;;;;20.06;73.54;102101.22;5035559;28;45392;-73
2021/08/23 06:53:04;;;;;;;;;19.25;18.00;;;;;20.08;73.16;102107.31;5035511;28;46173;-73
2021/08/23 06:55:31;;;;;;;;;23.25;19.00;;;;;20.15;73.32;102103.31;5017875;28;46093;-72
2021/08/23 06:57:56;;;;;;;;;20.00;17.00;;;;;20.22;72.76;102114.47;5035783;28;45430;-73
2021/08/23 07:00:22;;;;;;;;;18.00;15.00;;;;;20.27;72.35;102115.06;5035291;28;45423;-72
2021/08/23 07:02:48;;;;;;;;;17.50;15.50;;;;;20.27;72.29;102107.03;5034964;28;47032;-72
2021/08/23 07:05:13;;;;;;;;;15.25;13.75;;;;;20.32;72.32;102107.63;5034373;28;45419;-72
2021/08/23 07:07:38;;;;;;;;;16.75;12.00;;;;;20.36;71.93;102102.91;5040070;28;45712;-72
2021/08/23 07:10:04;;;;;;;;;14.50;11.75;;;;;20.38;71.94;102096.53;5035298;28;45384;-72
2021/08/23 07:12:29;;;;;;;;;17.00;14.50;;;;;20.38;71.03;102101.88;5032626;28;46039;-73
2021/08/23 07:14:55;;;;;;;;;14.75;11.75;;;;;20.43;71.27;102105.13;5033254;28;45611;-72
2021/08/23 07:17:20;;;;;;;;;14.75;13.75;;;;;20.47;70.86;102104.03;5033440;28;45511;-72
2021/08/23 07:19:46;;;;;;;;;11.25;11.00;;;;;20.47;70.63;102101.34;5034404;28;45545;-72
2021/08/23 07:22:18;;;;;;;;;12.75;11.25;;;;;20.54;71.14;102105.34;5026421;28;63782;-72
2021/08/23 07:24:43;;;;;;;;;10.50;10.00;;;;;20.36;70.58;102074.44;5035307;28;45535;-72
2021/08/23 07:27:09;;;;;;;;;12.25;12.25;;;;;20.56;70.93;102103.41;5030480;28;45398;-72
2021/08/23 07:29:34;;;;;;;;;15.50;13.00;;;;;20.67;70.21;102113.41;5029263;28;45596;-72
2021/08/23 07:31:59;;;;;;;;;50.00;38.25;;;;;20.78;70.43;102110.09;5029573;28;46314;-72
2021/08/23 07:34:25;;;;;;;;;19.50;15.75;;;;;20.86;70.35;102102.41;5028704;28;53015;-71
2021/08/23 07:36:51;;;;;;;;;14.00;12.50;;;;;21.01;70.34;102106.78;5030255;28;49577;-71
2021/08/23 07:39:17;;;;;;;;;12.00;10.00;;;;;21.08;69.43;102100.06;5029595;28;45338;-71
2021/08/23 07:41:42;;;;;;;;;13.25;10.00;;;;;21.08;69.44;102099.19;5010726;28;45888;-71
2021/08/23 07:44:08;;;;;;;;;13.50;11.00;;;;;21.15;69.08;102094.34;5031094;28;45490;-72
2021/08/23 07:46:33;;;;;;;;;13.75;10.50;;;;;21.24;69.07;102096.38;5034684;28;45490;-71
2021/08/23 07:48:58;;;;;;;;;11.75;10.25;;;;;21.46;68.94;102109.22;5030961;28;53157;-70
2021/08/23 07:51:24;;;;;;;;;12.50;10.00;;;;;21.56;67.68;102105.84;5035176;28;46931;-74
2021/08/23 07:53:49;;;;;;;;;16.00;13.00;;;;;21.60;67.71;102091.25;5037675;28;45531;-72
2021/08/23 07:56:14;;;;;;;;;11.00;8.50;;;;;21.76;67.09;102098.25;5041814;28;45738;-72
2021/08/23 07:58:40;;;;;;;;;11.50;10.00;;;;;21.88;67.27;102111.66;5034894;28;45987;-74
2021/08/23 08:01:05;;;;;;;;;10.75;9.50;;;;;22.04;67.16;102115.94;5032342;28;52100;-73
2021/08/23 08:03:30;;;;;;;;;11.00;8.75;;;;;22.05;66.79;102094.41;5030121;28;54418;-73
2021/08/23 08:05:55;;;;;;;;;11.00;9.00;;;;;22.08;65.46;102088.88;5017783;28;45714;-73
2021/08/23 08:08:21;;;;;;;;;13.50;9.00;;;;;22.21;65.91;102099.59;5036891;28;55873;-73
2021/08/23 08:10:46;;;;;;;;;11.25;9.75;;;;;22.37;65.72;102110.06;5031378;28;45653;-72
2021/08/23 08:13:11;;;;;;;;;11.25;8.50;;;;;22.53;65.67;102108.00;5019976;28;56717;-72
2021/08/23 08:15:39;;;;;;;;;49.00;41.00;;;;;22.72;65.17;102106.69;5028827;28;54147;-73
2021/08/23 08:18:05;;;;;;;;;11.75;11.00;;;;;22.87;64.20;102105.59;5027347;28;45563;-72
2021/08/23 08:20:30;;;;;;;;;9.00;9.00;;;;;22.98;64.20;102112.88;5033037;28;46549;-72
2021/08/23 08:22:55;;;;;;;;;11.00;10.00;;;;;22.86;63.72;102088.63;5028897;28;45444;-73
2021/08/23 08:25:21;;;;;;;;;8.50;8.50;;;;;23.09;63.81;102116.47;5029659;28;49487;-71
2021/08/23 08:27:47;;;;;;;;;9.75;8.75;;;;;23.20;63.33;102120.19;5036397;28;45663;-72
2021/08/23 08:30:17;;;;;;;;;10.50;9.50;;;;;23.37;63.61;102115.25;5028096;28;46993;-74
2021/08/23 08:32:42;;;;;;;;;13.25;11.00;;;;;23.71;62.56;102104.69;5027481;28;45519;-73
2021/08/23 08:35:09;;;;;;;;;11.25;9.75;;;;;24.09;62.13;102108.91;5029337;28;45457;-72
2021/08/23 08:37:34;;;;;;;;;11.00;8.25;;;;;24.32;61.02;102104.38;5029394;28;45730;-71
2021/08/23 08:39:59;;;;;;;;;12.25;10.50;;;;;24.50;61.32;102102.97;5032525;28;45979;-72
2021/08/23 08:42:25;;;;;;;;;12.50;9.00;;;;;24.62;60.64;102099.28;5031605;28;50921;-73
2021/08/23 08:44:50;;;;;;;;;13.25;8.50;;;;;24.92;59.84;102093.22;5030259;28;46512;-74
2021/08/23 08:47:17;;;;;;;;;10.00;9.75;;;;;25.30;59.35;102091.06;5035072;28;45559;-71
2021/08/23 08:49:43;;;;;;;;;12.75;10.00;;;;;25.51;59.70;102091.94;5034660;28;46209;-71
2021/08/23 08:52:10;;;;;;;;;17.00;10.00;;;;;25.64;59.30;102098.00;5036562;28;45692;-71
2021/08/23 08:54:37;;;;;;;;;8.75;8.75;;;;;25.60;58.26;102101.94;5041045;28;45410;-76
2021/08/23 08:57:03;;;;;;;;;7.50;7.25;;;;;25.67;58.34;102113.03;5030673;28;45502;-73
2021/08/23 08:59:29;;;;;;;;;13.25;12.50;;;;;25.67;56.88;102107.63;5034714;28;46134;-73
2021/08/23 09:01:55;;;;;;;;;15.00;13.00;;;;;25.51;56.86;102113.47;5036635;28;45538;-77
2021/08/23 09:04:32;;;;;;;;;11.00;9.75;;;;;25.21;58.48;102103.44;5043591;28;45653;-77
2021/08/23 09:06:59;;;;;;;;;10.75;8.75;;;;;24.93;57.91;102111.06;5032175;28;45433;-77
2021/08/23 09:09:25;;;;;;;;;13.50;9.25;;;;;24.67;58.25;102112.34;5034425;28;45386;-73
2021/08/23 09:12:11;;;;;;;;;9.25;9.25;;;;;24.35;58.30;102118.47;5033457;28;45793;-77
2021/08/23 09:14:48;;;;;;;;;7.75;7.25;;;;;24.03;58.84;102117.44;5028523;28;45492;-74
2021/08/23 09:17:13;;;;;;;;;11.50;10.00;;;;;23.75;59.45;102126.75;5033731;28;45362;-75
2021/08/23 09:19:40;;;;;;;;;9.50;9.00;;;;;23.60;59.78;102126.09;5033750;28;45385;-76
2021/08/23 09:22:07;;;;;;;;;11.50;9.50;;;;;23.50;60.15;102127.75;5033626;28;45472;-75
2021/08/23 09:24:37;;;;;;;;;9.00;9.00;;;;;23.33;60.45;102103.03;5034383;28;45388;-76
2021/08/23 09:27:05;;;;;;;;;11.50;11.00;;;;;23.41;60.11;102118.56;5033793;28;45681;-76
2021/08/23 09:29:30;;;;;;;;;8.50;8.00;;;;;23.39;60.49;102118.69;5032991;28;46661;-76
2021/08/23 09:31:59;;;;;;;;;10.00;10.00;;;;;23.31;60.16;102126.44;5032166;28;45375;-76
2021/08/23 09:34:25;;;;;;;;;11.50;8.50;;;;;23.30;60.22;102121.19;5033476;28;45523;-76
2021/08/23 09:37:00;;;;;;;;;9.75;8.75;;;;;23.33;60.70;102120.94;5033367;28;45234;-76
2021/08/23 09:39:28;;;;;;;;;10.25;8.25;;;;;23.44;60.27;102119.19;5032939;28;45790;-76
2021/08/23 09:42:06;;;;;;;;;10.50;9.75;;;;;23.43;60.21;102114.78;5033020;28;45684;-76
2021/08/23 09:44:36;;;;;;;;;10.50;7.50;;;;;23.55;60.28;102126.44;5033202;28;45764;-75
2021/08/23 09:47:02;;;;;;;;;9.00;8.00;;;;;23.53;60.31;102130.19;5033040;28;45382;-76
2021/08/23 09:49:44;;;;;;;;;9.25;9.00;;;;;23.42;60.35;102112.22;5035025;28;46510;-74
2021/08/23 09:52:12;;;;;;;;;11.25;10.50;;;;;23.37;60.47;102114.41;5038605;28;45479;-75
2021/08/23 09:54:38;;;;;;;;;10.00;9.00;;;;;23.30;60.35;102124.75;5036899;28;45489;-76
2021/08/23 09:57:04;;;;;;;;;9.75;6.50;;;;;23.28;60.59;102133.84;5037588;28;45336;-75
2021/08/23 09:59:34;;;;;;;;;41.25;31.25;;;;;23.23;61.04;102133.34;5037260;28;46196;-74
2021/08/23 10:02:03;;;;;;;;;9.50;9.50;;;;;23.18;60.89;102137.25;5041259;28;45470;-74
2021/08/23 10:04:29;;;;;;;;;8.75;7.75;;;;;23.27;60.97;102124.09;5034791;28;45399;-74
2021/08/23 10:06:56;;;;;;;;;7.50;7.00;;;;;23.37;61.05;102125.13;5038793;28;45510;-74
2021/08/23 10:09:28;;;;;;;;;9.75;6.75;;;;;23.43;60.43;102128.19;5043303;28;46380;-74
2021/08/23 10:11:56;;;;;;;;;9.25;7.50;;;;;23.41;60.46;102132.84;5039328;28;45457;-74
2021/08/23 10:14:23;;;;;;;;;9.00;9.00;;;;;23.41;60.52;102126.63;5040343;28;45602;-74
2021/08/23 10:16:49;;;;;;;;;8.50;8.00;;;;;23.32;60.56;102132.66;5044663;28;45908;-74
2021/08/23 10:19:14;;;;;;;;;8.25;7.50;;;;;23.13;60.72;102128.69;5031959;28;46261;-74
2021/08/23 10:21:43;;;;;;;;;9.25;7.25;;;;;23.05;60.81;102127.53;5036526;28;45375;-74
2021/08/23 10:24:10;;;;;;;;;8.00;7.00;;;;;23.05;61.08;102133.75;5040456;28;45429;-74
2021/08/23 10:26:45;;;;;;;;;9.00;8.00;;;;;23.09;61.13;102131.69;5032765;28;45455;-74
2021/08/23 10:29:13;;;;;;;;;8.75;8.25;;;;;23.07;61.00;102123.75;5031694;28;45762;-72
2021/08/23 10:31:43;;;;;;;;;8.00;8.00;;;;;23.12;61.23;102126.09;5028411;28;45749;-74
2021/08/23 10:34:28;;;;;;;;;8.00;8.00;;;;;23.02;61.28;102125.94;5031562;28;45500;-74
2021/08/23 10:36:54;;;;;;;;;9.00;7.75;;;;;22.93;61.21;102115.88;5029917;28;45995;-74
2021/08/23 10:39:21;;;;;;;;;9.00;8.50;;;;;22.88;61.85;102120.72;5032441;28;45387;-74
2021/08/23 10:41:48;;;;;;;;;8.50;7.00;;;;;22.80;62.32;102120.38;5033650;28;45775;-74
2021/08/23 10:44:24;;;;;;;;;9.25;7.75;;;;;22.76;62.27;102134.97;5039635;28;45488;-74
2021/08/23 10:46:49;;;;;;;;;7.75;6.00;;;;;22.69;62.45;102134.56;5033558;28;45895;-75
2021/08/23 10:49:16;;;;;;;;;11.00;6.00;;;;;22.64;63.15;102139.38;5032798;28;49944;-76
2021/08/23 10:51:44;;;;;;;;;8.50;6.25;;;;;22.52;62.94;102114.34;5032108;28;45744;-73
2021/08/23 10:54:22;;;;;;;;;8.75;7.25;;;;;22.63;63.23;102124.28;5033560;28;45488;-75
2021/08/23 10:57:02;;;;;;;;;6.75;6.75;;;;;22.70;63.27;102127.38;5031159;28;45760;-78
2021/08/23 10:59:38;;;;;;;;;8.00;7.75;;;;;22.67;63.17;102125.78;5026701;28;45759;-75
2021/08/23 11:02:04;;;;;;;;;7.00;7.00;;;;;22.76;63.52;102124.25;5034449;28;45880;-75
2021/08/23 11:04:34;;;;;;;;;7.00;6.25;;;;;22.90;63.81;102125.00;5029608;28;45590;-75
2021/08/23 11:07:01;;;;;;;;;6.25;6.00;;;;;23.02;63.35;102109.84;5030997;28;45686;-74
2021/08/23 11:09:35;;;;;;;;;7.00;5.75;;;;;23.23;62.78;102102.03;5028788;28;46130;-74
2021/08/23 11:12:15;;;;;;;;;7.75;7.25;;;;;23.58;62.60;102109.22;5032167;28;45490;-74
2021/08/23 11:14:52;;;;;;;;;7.00;6.75;;;;;24.01;62.08;102108.63;5033678;28;45721;-74
2021/08/23 11:17:34;;;;;;;;;10.50;8.00;;;;;24.38;61.37;102110.19;5020214;28;45735;-73